Bell City, Louisiana
Current Conditions -  °F | °C
As of 9:50 AM on Friday 21 Nov 2014 (Local Time) from KCWF Reporting Station
Broken Clouds Broken Clouds  
Wind Chill: 66°   Ceiling: 7000
Heat Index: 66°   Visibility: 10mi
Dew Point: 54°   Wind: 14mph
Humidity: 64%   Direction: 120°ESE
Pressure: 30.24"   Gusts: NA
Location:  30.11°N, 92.96°W
Report Text: KCWF 211550Z 12012KT 10SM BKN070 BKN095 19/12 A3024
Loading
Personal Weather Stations






























Interactive Weather Map New forecast layout! Learn more

10-Day Weather Forecast

Advertisements
Track Severe Weather on mobile